createdAt,value
2022-10-21T00:02:43.471Z,9.97
2022-10-21T00:07:50.688Z,10.38
2022-10-21T00:12:56.022Z,12.10
2022-10-21T00:18:01.914Z,6.93
2022-10-21T00:23:07.189Z,8.55
2022-10-21T00:28:12.325Z,4.10
2022-10-21T00:33:17.394Z,6.53
2022-10-21T00:43:33.368Z,9.80
2022-10-21T00:48:42.573Z,8.90
2022-10-21T00:54:17.371Z,8.00
2022-10-21T00:59:23.628Z,10.77
2022-10-21T01:04:29.053Z,9.18
2022-10-21T01:09:34.235Z,8.23
2022-10-21T01:14:57.964Z,9.38
2022-10-21T01:25:53.779Z,5.32
2022-10-21T01:31:17.575Z,5.25
2022-10-21T01:36:25.845Z,5.85
2022-10-21T01:41:49.468Z,8.55
2022-10-21T01:47:04.866Z,7.85
2022-10-21T01:52:13.813Z,5.80
2022-10-21T01:57:22.294Z,9.85
2022-10-21T02:02:29.450Z,7.13
2022-10-21T02:07:39.600Z,8.77
2022-10-21T02:12:46.362Z,11.23
2022-10-21T02:17:57.880Z,8.27
2022-10-21T02:23:03.585Z,11.80
2022-10-21T02:28:09.006Z,8.10
2022-10-21T02:33:21.238Z,5.70
2022-10-21T02:38:29.294Z,5.50
2022-10-21T02:43:34.687Z,8.77
2022-10-21T02:48:41.147Z,9.13
2022-10-21T02:58:51.334Z,8.18
2022-10-21T03:03:56.924Z,6.45
2022-10-21T03:09:02.302Z,10.53
2022-10-21T03:14:07.299Z,7.97
2022-10-21T03:19:13.380Z,8.35
2022-10-21T03:24:28.574Z,5.82
2022-10-21T03:29:34.546Z,11.80
2022-10-21T03:34:39.903Z,7.53
2022-10-21T03:39:45.250Z,8.25
2022-10-21T03:44:50.490Z,7.25
2022-10-21T03:49:55.783Z,7.88
2022-10-21T03:55:00.716Z,10.25
2022-10-21T04:00:27.071Z,6.38
2022-10-21T04:05:34.620Z,9.82
2022-10-21T04:10:39.611Z,6.75
2022-10-21T04:15:45.209Z,7.07
2022-10-21T04:20:50.449Z,5.30
2022-10-21T04:25:55.595Z,8.88
2022-10-21T04:31:01.077Z,6.30
2022-10-21T04:36:07.527Z,9.73
2022-10-21T04:41:16.658Z,6.47
2022-10-21T04:46:22.716Z,5.82
2022-10-21T04:51:28.032Z,9.65
2022-10-21T04:56:33.581Z,13.23
2022-10-21T05:01:38.815Z,9.53
2022-10-21T05:06:43.905Z,9.05
2022-10-21T05:11:49.458Z,11.10
2022-10-21T05:16:54.297Z,12.93
2022-10-21T05:21:59.495Z,9.73
2022-10-21T05:27:04.823Z,11.30
2022-10-21T05:32:10.781Z,10.02
2022-10-21T05:37:15.953Z,12.38
2022-10-21T05:42:21.874Z,13.75
2022-10-21T05:47:27.387Z,10.57
2022-10-21T05:52:32.471Z,12.23
2022-10-21T05:57:38.449Z,7.15
2022-10-21T06:02:43.832Z,9.43
2022-10-21T06:07:49.690Z,11.65
2022-10-21T06:12:54.585Z,8.60
2022-10-21T06:18:02.629Z,15.90
2022-10-21T06:23:07.920Z,17.08
2022-10-21T06:28:16.117Z,14.82
2022-10-21T06:33:26.068Z,18.33
2022-10-21T06:38:34.471Z,14.75
2022-10-21T06:43:39.879Z,13.80
2022-10-21T06:48:45.218Z,19.90
2022-10-21T06:53:53.490Z,11.82
2022-10-21T06:58:59.767Z,11.23
2022-10-21T07:04:08.438Z,13.05
2022-10-21T07:09:14.038Z,18.67
2022-10-21T07:14:19.601Z,16.97
2022-10-21T07:19:25.013Z,12.52
2022-10-21T07:24:30.072Z,9.75
2022-10-21T07:29:35.403Z,21.00
2022-10-21T07:34:40.565Z,19.42
2022-10-21T07:39:48.742Z,15.37
2022-10-21T07:44:58.621Z,11.32
2022-10-21T07:50:04.317Z,21.10
2022-10-21T07:55:09.699Z,15.55
2022-10-21T08:00:15.242Z,15.83
2022-10-21T08:05:20.813Z,17.10
2022-10-21T08:10:26.770Z,18.10
2022-10-21T08:15:32.191Z,23.10
2022-10-21T08:20:40.541Z,25.97
2022-10-21T08:25:50.216Z,18.90
2022-10-21T08:30:56.508Z,20.52
2022-10-21T08:36:01.683Z,15.55
2022-10-21T08:41:19.114Z,23.05
2022-10-21T08:46:26.867Z,21.15
2022-10-21T08:51:36.065Z,18.88
2022-10-21T08:56:41.582Z,19.73
2022-10-21T09:01:51.650Z,18.60
2022-10-21T09:06:56.640Z,19.42
2022-10-21T09:12:13.749Z,18.10
2022-10-21T09:17:31.352Z,19.70
2022-10-21T09:22:36.777Z,29.25
2022-10-21T09:27:55.037Z,20.27
2022-10-21T09:33:02.808Z,22.67
2022-10-21T09:38:25.704Z,28.75
2022-10-21T09:43:31.299Z,18.40
2022-10-21T09:54:23.213Z,26.83
2022-10-21T09:59:32.958Z,32.30
2022-10-21T10:09:57.213Z,20.60
2022-10-21T10:15:22.318Z,17.93
2022-10-21T10:20:31.126Z,26.05
2022-10-21T10:25:38.013Z,28.73
2022-10-21T10:30:46.437Z,32.33
2022-10-21T10:35:56.144Z,20.55
2022-10-21T10:41:11.106Z,21.10
2022-10-21T10:51:47.979Z,25.80
2022-10-21T10:56:53.436Z,37.47
2022-10-21T11:01:58.650Z,32.30
2022-10-21T11:07:24.083Z,23.27
2022-10-21T11:12:29.334Z,18.67
2022-10-21T11:17:56.768Z,28.47
2022-10-21T11:23:23.444Z,26.10
2022-10-21T11:28:40.474Z,26.55
2022-10-21T11:34:04.508Z,28.38
2022-10-21T11:39:21.495Z,27.23
2022-10-21T11:44:29.302Z,28.98
2022-10-21T11:50:01.533Z,24.63
2022-10-21T11:55:24.717Z,36.75
2022-10-21T12:00:34.387Z,21.05
2022-10-21T12:05:52.337Z,26.08
2022-10-21T12:11:01.513Z,20.42
2022-10-21T12:16:13.455Z,26.67
2022-10-21T12:21:22.791Z,25.65
2022-10-21T12:26:43.255Z,24.75
2022-10-21T12:31:48.943Z,26.65
2022-10-21T12:36:57.253Z,21.80
2022-10-21T12:42:14.103Z,34.55
2022-10-21T12:47:43.577Z,22.58
2022-10-21T12:53:13.963Z,24.83
2022-10-21T12:58:35.897Z,20.30
2022-10-21T13:03:53.437Z,25.42
2022-10-21T13:08:59.041Z,24.33
2022-10-21T13:14:35.385Z,20.27
2022-10-21T13:19:42.015Z,22.85
2022-10-21T13:24:49.049Z,24.80
2022-10-21T13:29:54.999Z,21.63
2022-10-21T13:35:25.517Z,19.57
2022-10-21T13:46:20.271Z,21.13
2022-10-21T13:51:30.341Z,17.10
2022-10-21T13:56:37.287Z,19.45
2022-10-21T14:02:11.560Z,17.77
2022-10-21T14:07:20.687Z,17.48
2022-10-21T14:12:38.573Z,22.65
2022-10-21T14:17:46.906Z,26.77
2022-10-21T14:22:53.021Z,18.65
2022-10-21T14:28:07.889Z,18.70
2022-10-21T14:33:24.415Z,22.60
2022-10-21T14:38:31.221Z,15.73
2022-10-21T14:43:38.398Z,14.20
2022-10-21T14:48:55.635Z,17.08
2022-10-21T14:59:26.793Z,21.05
2022-10-21T15:04:55.775Z,18.45
2022-10-21T15:10:10.017Z,14.73
2022-10-21T15:15:33.810Z,21.58
2022-10-21T15:20:40.859Z,12.95
2022-10-21T15:25:46.228Z,20.08
2022-10-21T15:30:53.783Z,11.57
2022-10-21T15:36:06.598Z,12.95
2022-10-21T15:41:15.291Z,16.65
2022-10-21T15:46:24.120Z,12.48
2022-10-21T15:51:29.137Z,15.63
2022-10-21T15:56:33.956Z,13.70
2022-10-21T16:01:39.504Z,22.83
2022-10-21T16:06:49.718Z,14.93
2022-10-21T16:12:01.095Z,14.77
2022-10-21T16:17:06.897Z,11.82
2022-10-21T16:22:26.397Z,12.32
2022-10-21T16:27:43.777Z,12.57
2022-10-21T16:32:58.529Z,13.93
2022-10-21T16:38:04.014Z,15.40
2022-10-21T16:43:09.382Z,15.00
2022-10-21T16:48:17.865Z,14.57
2022-10-21T16:53:23.743Z,14.10
2022-10-21T16:58:28.918Z,17.87
2022-10-21T17:03:34.348Z,17.98
2022-10-21T17:08:40.058Z,15.80
2022-10-21T17:13:45.873Z,17.40
2022-10-21T17:18:54.612Z,8.98
2022-10-21T17:24:00.235Z,15.32
2022-10-21T17:29:05.788Z,11.13
2022-10-21T17:34:17.169Z,17.77
2022-10-21T17:39:22.843Z,10.65
2022-10-21T17:44:28.070Z,11.37
2022-10-21T17:49:33.124Z,8.77
2022-10-21T17:54:38.513Z,10.23
2022-10-21T17:59:44.652Z,10.00
2022-10-21T18:09:54.832Z,10.77
2022-10-21T18:15:00.479Z,7.75
2022-10-21T18:20:05.995Z,8.80
2022-10-21T18:25:11.807Z,10.05
2022-10-21T18:30:17.192Z,15.20
2022-10-21T18:35:22.331Z,8.30
2022-10-21T18:40:28.434Z,14.43
2022-10-21T18:45:33.776Z,16.95
2022-10-21T18:50:41.623Z,11.80
2022-10-21T18:55:47.042Z,10.05
2022-10-21T19:00:53.244Z,9.37
2022-10-21T19:05:58.570Z,10.00
2022-10-21T19:11:03.467Z,12.57
2022-10-21T19:16:09.242Z,9.82
2022-10-21T19:21:14.641Z,9.43
2022-10-21T19:26:22.429Z,8.57
2022-10-21T19:31:28.743Z,13.60
2022-10-21T19:36:34.489Z,12.40
2022-10-21T19:41:39.916Z,9.00
2022-10-21T19:46:46.101Z,10.77
2022-10-21T19:51:51.096Z,10.30
2022-10-21T19:56:57.067Z,7.93
2022-10-21T20:02:02.161Z,7.20
2022-10-21T20:07:11.005Z,13.70
2022-10-21T20:12:16.630Z,15.55
2022-10-21T20:17:22.015Z,9.02
2022-10-21T20:22:27.733Z,9.50
2022-10-21T20:27:33.099Z,8.93
2022-10-21T20:32:39.197Z,11.23
2022-10-21T20:37:44.185Z,9.70
2022-10-21T20:42:49.969Z,14.55
2022-10-21T20:47:55.175Z,9.98
2022-10-21T20:53:00.552Z,10.23
2022-10-21T20:58:05.944Z,10.60
2022-10-21T21:03:11.208Z,7.27
2022-10-21T21:08:16.364Z,10.27
2022-10-21T21:13:21.733Z,8.90
2022-10-21T21:18:26.843Z,6.73
2022-10-21T21:23:31.873Z,9.95
2022-10-21T21:28:38.340Z,8.52
2022-10-21T21:33:45.276Z,8.45
2022-10-21T21:38:51.717Z,8.65
2022-10-21T21:43:58.199Z,11.23
2022-10-21T21:49:05.842Z,11.75
2022-10-21T21:54:11.516Z,8.55
2022-10-21T21:59:16.901Z,11.25
2022-10-21T22:04:22.083Z,8.47
2022-10-21T22:09:27.211Z,6.35
2022-10-21T22:14:32.880Z,10.27
2022-10-21T22:19:38.084Z,6.72
2022-10-21T22:24:43.720Z,8.38
2022-10-21T22:29:49.022Z,5.33
2022-10-21T22:34:54.174Z,9.23
2022-10-21T22:39:59.320Z,6.25
2022-10-21T22:45:04.524Z,11.10
2022-10-21T22:50:09.846Z,8.30
2022-10-21T22:55:15.227Z,7.10
2022-10-21T23:00:20.480Z,9.57
2022-10-21T23:05:25.871Z,5.75
2022-10-21T23:10:31.077Z,5.32
2022-10-21T23:15:37.040Z,11.07
2022-10-21T23:20:42.456Z,7.50
2022-10-21T23:25:47.643Z,8.67
2022-10-21T23:30:52.842Z,5.63
2022-10-21T23:35:58.426Z,12.53
2022-10-21T23:41:03.502Z,5.53
2022-10-21T23:46:09.162Z,9.25
2022-10-21T23:51:14.288Z,12.90
2022-10-21T23:56:19.459Z,9.02
